sensor_id;sensor_type;location;lat;lon;timestamp;pressure;altitude;pressure_sealevel;temperature;humidity
82305;BME280;71914;47.382;8.168;2024-01-15T00:00:38;95876.69;;;-0.69;91.03
82305;BME280;71914;47.382;8.168;2024-01-15T00:03:04;95878.63;;;-0.58;93.55
82305;BME280;71914;47.382;8.168;2024-01-15T00:05:30;95876.06;;;-0.44;94.90
82305;BME280;71914;47.382;8.168;2024-01-15T00:07:55;95868.72;;;-0.36;95.50
82305;BME280;71914;47.382;8.168;2024-01-15T00:10:21;95865.53;;;-0.25;94.93
82305;BME280;71914;47.382;8.168;2024-01-15T00:12:48;95864.41;;;-0.21;95.59
82305;BME280;71914;47.382;8.168;2024-01-15T00:15:14;95861.53;;;-0.16;93.01
82305;BME280;71914;47.382;8.168;2024-01-15T00:17:40;95862.75;;;-0.07;95.08
82305;BME280;71914;47.382;8.168;2024-01-15T00:20:07;95859.63;;;-0.12;92.18
82305;BME280;71914;47.382;8.168;2024-01-15T00:22:32;95860.63;;;-0.15;93.51
82305;BME280;71914;47.382;8.168;2024-01-15T00:25:00;95858.72;;;-0.26;94.27
82305;BME280;71914;47.382;8.168;2024-01-15T00:27:26;95861.00;;;-0.21;94.05
82305;BME280;71914;47.382;8.168;2024-01-15T00:29:53;95861.53;;;-0.16;89.83
82305;BME280;71914;47.382;8.168;2024-01-15T00:32:19;95855.78;;;-0.20;92.50
82305;BME280;71914;47.382;8.168;2024-01-15T00:34:46;95864.56;;;-0.24;91.29
82305;BME280;71914;47.382;8.168;2024-01-15T00:37:11;95866.63;;;-0.29;91.40
82305;BME280;71914;47.382;8.168;2024-01-15T00:39:37;95870.00;;;-0.28;90.65
82305;BME280;71914;47.382;8.168;2024-01-15T00:42:03;95875.06;;;-0.41;90.49
82305;BME280;71914;47.382;8.168;2024-01-15T00:44:29;95871.22;;;-0.48;91.73
82305;BME280;71914;47.382;8.168;2024-01-15T00:46:56;95875.25;;;-0.44;93.69
82305;BME280;71914;47.382;8.168;2024-01-15T00:49:21;95870.72;;;-0.55;91.86
82305;BME280;71914;47.382;8.168;2024-01-15T00:51:47;95865.84;;;-0.60;91.58
82305;BME280;71914;47.382;8.168;2024-01-15T00:54:13;95882.09;;;-0.59;92.68
82305;BME280;71914;47.382;8.168;2024-01-15T00:56:38;95872.19;;;-0.65;94.12
82305;BME280;71914;47.382;8.168;2024-01-15T00:59:04;95882.03;;;-0.58;94.84
82305;BME280;71914;47.382;8.168;2024-01-15T01:01:30;95875.97;;;-0.57;94.28
82305;BME280;71914;47.382;8.168;2024-01-15T01:03:57;95865.41;;;-0.38;95.17
82305;BME280;71914;47.382;8.168;2024-01-15T01:06:23;95869.56;;;-0.35;90.60
82305;BME280;71914;47.382;8.168;2024-01-15T01:08:48;95880.75;;;-0.51;90.04
82305;BME280;71914;47.382;8.168;2024-01-15T01:11:14;95884.31;;;-0.68;87.76
82305;BME280;71914;47.382;8.168;2024-01-15T01:13:40;95877.03;;;-0.75;89.83
82305;BME280;71914;47.382;8.168;2024-01-15T01:16:05;95887.06;;;-0.71;91.45
82305;BME280;71914;47.382;8.168;2024-01-15T01:18:31;95890.09;;;-0.64;90.98
82305;BME280;71914;47.382;8.168;2024-01-15T01:20:58;95881.63;;;-0.66;88.43
82305;BME280;71914;47.382;8.168;2024-01-15T01:23:24;95880.06;;;-0.69;86.80
82305;BME280;71914;47.382;8.168;2024-01-15T01:25:49;95876.22;;;-0.76;85.48
82305;BME280;71914;47.382;8.168;2024-01-15T01:28:15;95868.19;;;-0.86;86.13
82305;BME280;71914;47.382;8.168;2024-01-15T01:30:41;95870.72;;;-0.70;92.65
82305;BME280;71914;47.382;8.168;2024-01-15T01:33:06;95875.34;;;-0.60;93.50
82305;BME280;71914;47.382;8.168;2024-01-15T01:35:32;95879.84;;;-0.49;93.45
82305;BME280;71914;47.382;8.168;2024-01-15T01:37:59;95886.47;;;-0.45;92.69
82305;BME280;71914;47.382;8.168;2024-01-15T01:40:24;95894.09;;;-0.44;92.40
82305;BME280;71914;47.382;8.168;2024-01-15T01:42:50;95896.97;;;-0.34;86.75
82305;BME280;71914;47.382;8.168;2024-01-15T01:45:16;95900.44;;;-0.35;92.46
82305;BME280;71914;47.382;8.168;2024-01-15T01:47:42;95892.28;;;-0.27;93.44
82305;BME280;71914;47.382;8.168;2024-01-15T01:50:08;95886.38;;;-0.29;93.54
82305;BME280;71914;47.382;8.168;2024-01-15T01:52:34;95896.41;;;-0.25;93.51
82305;BME280;71914;47.382;8.168;2024-01-15T01:55:02;95889.16;;;-0.32;90.45
82305;BME280;71914;47.382;8.168;2024-01-15T01:57:29;95900.09;;;-0.29;85.13
82305;BME280;71914;47.382;8.168;2024-01-15T01:59:56;95895.84;;;-0.44;85.36
82305;BME280;71914;47.382;8.168;2024-01-15T02:02:23;95895.91;;;-0.60;86.97
82305;BME280;71914;47.382;8.168;2024-01-15T02:04:50;95900.75;;;-0.70;86.84
82305;BME280;71914;47.382;8.168;2024-01-15T02:07:15;95899.81;;;-0.84;87.82
82305;BME280;71914;47.382;8.168;2024-01-15T02:09:43;95904.19;;;-0.86;89.67
82305;BME280;71914;47.382;8.168;2024-01-15T02:12:11;95888.47;;;-0.95;88.25
82305;BME280;71914;47.382;8.168;2024-01-15T02:14:36;95910.72;;;-0.94;88.88
82305;BME280;71914;47.382;8.168;2024-01-15T02:17:02;95897.38;;;-1.01;87.48
82305;BME280;71914;47.382;8.168;2024-01-15T02:19:28;95899.19;;;-1.03;87.35
82305;BME280;71914;47.382;8.168;2024-01-15T02:21:54;95895.22;;;-1.09;86.94
82305;BME280;71914;47.382;8.168;2024-01-15T02:24:21;95897.75;;;-1.23;87.48
82305;BME280;71914;47.382;8.168;2024-01-15T02:26:47;95886.97;;;-1.30;87.84
82305;BME280;71914;47.382;8.168;2024-01-15T02:29:13;95890.53;;;-1.32;88.08
82305;BME280;71914;47.382;8.168;2024-01-15T02:31:39;95901.88;;;-1.37;87.95
82305;BME280;71914;47.382;8.168;2024-01-15T02:34:05;95888.28;;;-1.39;89.90
82305;BME280;71914;47.382;8.168;2024-01-15T02:36:30;95886.38;;;-1.19;92.06
82305;BME280;71914;47.382;8.168;2024-01-15T02:38:56;95898.03;;;-1.13;89.67
82305;BME280;71914;47.382;8.168;2024-01-15T02:41:23;95884.22;;;-1.27;89.16
82305;BME280;71914;47.382;8.168;2024-01-15T02:43:49;95895.91;;;-1.37;88.16
82305;BME280;71914;47.382;8.168;2024-01-15T02:46:14;95892.25;;;-1.33;88.87
82305;BME280;71914;47.382;8.168;2024-01-15T02:48:41;95891.19;;;-1.29;90.00
82305;BME280;71914;47.382;8.168;2024-01-15T02:51:07;95893.94;;;-1.32;89.38
82305;BME280;71914;47.382;8.168;2024-01-15T02:53:32;95897.06;;;-1.27;89.24
82305;BME280;71914;47.382;8.168;2024-01-15T02:55:58;95891.50;;;-1.19;91.73
82305;BME280;71914;47.382;8.168;2024-01-15T02:58:25;95889.75;;;-1.19;90.15
82305;BME280;71914;47.382;8.168;2024-01-15T03:00:51;95893.75;;;-1.29;88.45
82305;BME280;71914;47.382;8.168;2024-01-15T03:03:16;95894.31;;;-1.24;91.39
82305;BME280;71914;47.382;8.168;2024-01-15T03:05:42;95896.38;;;-1.14;92.19
82305;BME280;71914;47.382;8.168;2024-01-15T03:08:08;95903.28;;;-1.15;91.04
82305;BME280;71914;47.382;8.168;2024-01-15T03:10:33;95889.09;;;-1.22;89.70
82305;BME280;71914;47.382;8.168;2024-01-15T03:12:59;95889.91;;;-1.06;92.02
82305;BME280;71914;47.382;8.168;2024-01-15T03:15:26;95878.63;;;-1.03;89.39
82305;BME280;71914;47.382;8.168;2024-01-15T03:17:51;95871.28;;;-0.95;90.68
82305;BME280;71914;47.382;8.168;2024-01-15T03:20:17;95884.03;;;-0.93;89.95
82305;BME280;71914;47.382;8.168;2024-01-15T03:22:43;95871.50;;;-0.84;86.00
82305;BME280;71914;47.382;8.168;2024-01-15T03:25:08;95873.59;;;-0.90;85.96
82305;BME280;71914;47.382;8.168;2024-01-15T03:27:34;95870.28;;;-0.92;89.08
82305;BME280;71914;47.382;8.168;2024-01-15T03:30:00;95866.41;;;-0.99;86.88
82305;BME280;71914;47.382;8.168;2024-01-15T03:32:27;95874.75;;;-0.96;86.58
82305;BME280;71914;47.382;8.168;2024-01-15T03:34:53;95866.50;;;-1.01;87.51
82305;BME280;71914;47.382;8.168;2024-01-15T03:37:18;95866.31;;;-0.98;87.08
82305;BME280;71914;47.382;8.168;2024-01-15T03:39:45;95867.03;;;-0.96;85.68
82305;BME280;71914;47.382;8.168;2024-01-15T03:42:10;95871.13;;;-0.92;85.86
82305;BME280;71914;47.382;8.168;2024-01-15T03:44:36;95859.75;;;-0.88;87.06
82305;BME280;71914;47.382;8.168;2024-01-15T03:47:01;95857.88;;;-0.86;85.36
82305;BME280;71914;47.382;8.168;2024-01-15T03:49:28;95854.03;;;-0.93;85.25
82305;BME280;71914;47.382;8.168;2024-01-15T03:51:54;95858.31;;;-0.93;85.04
82305;BME280;71914;47.382;8.168;2024-01-15T03:54:20;95843.09;;;-0.96;83.43
82305;BME280;71914;47.382;8.168;2024-01-15T03:56:45;95845.56;;;-0.95;84.43
82305;BME280;71914;47.382;8.168;2024-01-15T03:59:11;95844.75;;;-0.95;82.69
82305;BME280;71914;47.382;8.168;2024-01-15T04:01:37;95847.78;;;-0.89;82.96
82305;BME280;71914;47.382;8.168;2024-01-15T04:04:02;95847.03;;;-0.91;84.17
82305;BME280;71914;47.382;8.168;2024-01-15T04:06:29;95845.69;;;-0.82;85.12
82305;BME280;71914;47.382;8.168;2024-01-15T04:08:55;95843.69;;;-0.77;85.52
82305;BME280;71914;47.382;8.168;2024-01-15T04:11:21;95837.88;;;-0.80;83.61
82305;BME280;71914;47.382;8.168;2024-01-15T04:13:47;95827.25;;;-0.74;85.63
82305;BME280;71914;47.382;8.168;2024-01-15T04:16:13;95829.16;;;-0.63;87.87
82305;BME280;71914;47.382;8.168;2024-01-15T04:18:39;95828.25;;;-0.62;86.53
82305;BME280;71914;47.382;8.168;2024-01-15T04:21:05;95832.19;;;-0.57;87.79
82305;BME280;71914;47.382;8.168;2024-01-15T04:23:33;95830.00;;;-0.63;82.59
82305;BME280;71914;47.382;8.168;2024-01-15T04:25:58;95830.47;;;-0.71;81.83
82305;BME280;71914;47.382;8.168;2024-01-15T04:28:24;95823.44;;;-0.83;82.36
82305;BME280;71914;47.382;8.168;2024-01-15T04:30:49;95831.44;;;-0.88;82.12
82305;BME280;71914;47.382;8.168;2024-01-15T04:33:15;95831.69;;;-0.92;82.49
82305;BME280;71914;47.382;8.168;2024-01-15T04:35:41;95837.41;;;-0.87;82.12
82305;BME280;71914;47.382;8.168;2024-01-15T04:38:07;95846.69;;;-0.85;82.83
82305;BME280;71914;47.382;8.168;2024-01-15T04:40:34;95840.34;;;-0.79;82.96
82305;BME280;71914;47.382;8.168;2024-01-15T04:43:00;95844.72;;;-0.65;83.50
82305;BME280;71914;47.382;8.168;2024-01-15T04:45:25;95841.31;;;-0.65;84.42
82305;BME280;71914;47.382;8.168;2024-01-15T04:47:54;95838.81;;;-0.67;84.16
82305;BME280;71914;47.382;8.168;2024-01-15T04:50:20;95838.28;;;-0.58;83.30
82305;BME280;71914;47.382;8.168;2024-01-15T04:52:45;95847.19;;;-0.63;83.22
82305;BME280;71914;47.382;8.168;2024-01-15T04:55:11;95843.78;;;-0.64;83.23
82305;BME280;71914;47.382;8.168;2024-01-15T04:57:38;95837.44;;;-0.58;82.00
82305;BME280;71914;47.382;8.168;2024-01-15T05:00:04;95848.75;;;-0.61;81.82
82305;BME280;71914;47.382;8.168;2024-01-15T05:02:30;95843.78;;;-0.78;82.61
82305;BME280;71914;47.382;8.168;2024-01-15T05:04:56;95852.16;;;-0.75;82.83
82305;BME280;71914;47.382;8.168;2024-01-15T05:07:21;95844.88;;;-0.82;82.68
82305;BME280;71914;47.382;8.168;2024-01-15T05:09:47;95851.13;;;-0.72;82.12
82305;BME280;71914;47.382;8.168;2024-01-15T05:12:13;95845.16;;;-0.73;82.80
82305;BME280;71914;47.382;8.168;2024-01-15T05:14:40;95845.81;;;-0.69;82.16
82305;BME280;71914;47.382;8.168;2024-01-15T05:17:06;95839.28;;;-0.75;82.74
82305;BME280;71914;47.382;8.168;2024-01-15T05:19:32;95825.41;;;-0.72;82.45
82305;BME280;71914;47.382;8.168;2024-01-15T05:21:57;95818.22;;;-0.67;82.16
82305;BME280;71914;47.382;8.168;2024-01-15T05:24:23;95828.16;;;-0.61;83.32
82305;BME280;71914;47.382;8.168;2024-01-15T05:26:49;95840.66;;;-0.69;82.03
82305;BME280;71914;47.382;8.168;2024-01-15T05:29:14;95846.00;;;-0.72;82.08
82305;BME280;71914;47.382;8.168;2024-01-15T05:31:41;95848.94;;;-0.64;82.91
82305;BME280;71914;47.382;8.168;2024-01-15T05:34:07;95841.22;;;-0.64;82.38
82305;BME280;71914;47.382;8.168;2024-01-15T05:36:33;95844.81;;;-0.67;83.09
82305;BME280;71914;47.382;8.168;2024-01-15T05:38:58;95836.31;;;-0.69;82.53
82305;BME280;71914;47.382;8.168;2024-01-15T05:41:24;95847.28;;;-0.65;82.57
82305;BME280;71914;47.382;8.168;2024-01-15T05:43:49;95834.16;;;-0.60;81.99
82305;BME280;71914;47.382;8.168;2024-01-15T05:46:15;95838.09;;;-0.69;81.91
82305;BME280;71914;47.382;8.168;2024-01-15T05:48:42;95827.44;;;-0.63;83.78
82305;BME280;71914;47.382;8.168;2024-01-15T05:51:08;95829.72;;;-0.58;82.61
82305;BME280;71914;47.382;8.168;2024-01-15T05:53:34;95843.69;;;-0.62;81.93
82305;BME280;71914;47.382;8.168;2024-01-15T05:55:59;95838.19;;;-0.71;82.31
82305;BME280;71914;47.382;8.168;2024-01-15T05:58:26;95844.06;;;-0.69;82.63
82305;BME280;71914;47.382;8.168;2024-01-15T06:00:52;95836.53;;;-0.72;82.96
82305;BME280;71914;47.382;8.168;2024-01-15T06:03:17;95843.50;;;-0.74;82.49
82305;BME280;71914;47.382;8.168;2024-01-15T06:05:45;95831.81;;;-0.79;83.03
82305;BME280;71914;47.382;8.168;2024-01-15T06:08:10;95840.91;;;-0.74;82.67
82305;BME280;71914;47.382;8.168;2024-01-15T06:10:36;95835.59;;;-0.71;81.48
82305;BME280;71914;47.382;8.168;2024-01-15T06:13:02;95838.09;;;-0.69;81.36
82305;BME280;71914;47.382;8.168;2024-01-15T06:15:28;95834.94;;;-0.74;81.94
82305;BME280;71914;47.382;8.168;2024-01-15T06:17:53;95826.03;;;-0.69;81.57
82305;BME280;71914;47.382;8.168;2024-01-15T06:20:19;95831.38;;;-0.72;82.48
82305;BME280;71914;47.382;8.168;2024-01-15T06:22:46;95819.97;;;-0.68;80.80
82305;BME280;71914;47.382;8.168;2024-01-15T06:25:11;95828.06;;;-0.74;81.61
82305;BME280;71914;47.382;8.168;2024-01-15T06:27:37;95824.56;;;-0.73;80.80
82305;BME280;71914;47.382;8.168;2024-01-15T06:30:04;95829.06;;;-0.76;80.97
82305;BME280;71914;47.382;8.168;2024-01-15T06:32:30;95838.00;;;-0.68;79.91
82305;BME280;71914;47.382;8.168;2024-01-15T06:34:55;95819.88;;;-0.66;79.93
82305;BME280;71914;47.382;8.168;2024-01-15T06:37:21;95822.00;;;-0.58;79.00
82305;BME280;71914;47.382;8.168;2024-01-15T06:39:48;95823.56;;;-0.56;77.98
82305;BME280;71914;47.382;8.168;2024-01-15T06:42:14;95818.72;;;-0.60;78.66
82305;BME280;71914;47.382;8.168;2024-01-15T06:44:39;95819.72;;;-0.48;83.01
82305;BME280;71914;47.382;8.168;2024-01-15T06:47:05;95805.47;;;-0.40;78.15
82305;BME280;71914;47.382;8.168;2024-01-15T06:49:31;95807.47;;;-0.30;77.20
82305;BME280;71914;47.382;8.168;2024-01-15T06:51:56;95804.00;;;-0.44;77.19
82305;BME280;71914;47.382;8.168;2024-01-15T06:54:22;95795.00;;;-0.51;76.70
82305;BME280;71914;47.382;8.168;2024-01-15T06:56:50;95800.88;;;-0.49;76.74
82305;BME280;71914;47.382;8.168;2024-01-15T06:59:16;95802.97;;;-0.41;75.92
82305;BME280;71914;47.382;8.168;2024-01-15T07:01:41;95803.34;;;-0.47;76.16
82305;BME280;71914;47.382;8.168;2024-01-15T07:04:07;95801.53;;;-0.45;76.49
82305;BME280;71914;47.382;8.168;2024-01-15T07:06:33;95806.84;;;-0.48;76.68
82305;BME280;71914;47.382;8.168;2024-01-15T07:08:59;95807.03;;;-0.52;76.83
82305;BME280;71914;47.382;8.168;2024-01-15T07:11:25;95810.34;;;-0.49;76.60
82305;BME280;71914;47.382;8.168;2024-01-15T07:13:52;95803.72;;;-0.54;76.63
82305;BME280;71914;47.382;8.168;2024-01-15T07:16:17;95805.38;;;-0.53;76.29
82305;BME280;71914;47.382;8.168;2024-01-15T07:18:43;95812.06;;;-0.50;76.30
82305;BME280;71914;47.382;8.168;2024-01-15T07:21:09;95806.66;;;-0.45;77.11
82305;BME280;71914;47.382;8.168;2024-01-15T07:23:34;95808.13;;;-0.41;77.99
82305;BME280;71914;47.382;8.168;2024-01-15T07:26:00;95815.13;;;-0.43;75.84
82305;BME280;71914;47.382;8.168;2024-01-15T07:28:28;95818.97;;;-0.36;76.38
82305;BME280;71914;47.382;8.168;2024-01-15T07:30:55;95810.00;;;-0.43;77.09
82305;BME280;71914;47.382;8.168;2024-01-15T07:33:21;95818.44;;;-0.41;76.00
82305;BME280;71914;47.382;8.168;2024-01-15T07:35:47;95816.16;;;-0.46;76.10
82305;BME280;71914;47.382;8.168;2024-01-15T07:38:12;95806.00;;;-0.49;76.18
82305;BME280;71914;47.382;8.168;2024-01-15T07:40:38;95810.16;;;-0.46;76.11
82305;BME280;71914;47.382;8.168;2024-01-15T07:43:04;95811.63;;;-0.42;76.04
82305;BME280;71914;47.382;8.168;2024-01-15T07:45:29;95814.09;;;-0.26;77.74
82305;BME280;71914;47.382;8.168;2024-01-15T07:47:56;95816.59;;;-0.39;75.43
82305;BME280;71914;47.382;8.168;2024-01-15T07:50:22;95811.25;;;-0.36;75.93
82305;BME280;71914;47.382;8.168;2024-01-15T07:52:48;95811.16;;;-0.35;74.31
82305;BME280;71914;47.382;8.168;2024-01-15T07:55:14;95807.31;;;-0.42;73.49
82305;BME280;71914;47.382;8.168;2024-01-15T07:57:39;95809.88;;;-0.42;74.05
82305;BME280;71914;47.382;8.168;2024-01-15T08:00:06;95826.44;;;-0.46;74.56
82305;BME280;71914;47.382;8.168;2024-01-15T08:02:32;95823.03;;;-0.46;73.60
82305;BME280;71914;47.382;8.168;2024-01-15T08:04:59;95829.09;;;-0.47;73.71
82305;BME280;71914;47.382;8.168;2024-01-15T08:07:25;95823.94;;;-0.47;72.93
82305;BME280;71914;47.382;8.168;2024-01-15T08:09:51;95824.50;;;-0.42;73.03
82305;BME280;71914;47.382;8.168;2024-01-15T08:12:17;95840.69;;;-0.40;73.38
82305;BME280;71914;47.382;8.168;2024-01-15T08:14:42;95840.50;;;-0.37;71.77
82305;BME280;71914;47.382;8.168;2024-01-15T08:17:08;95834.34;;;-0.35;71.72
82305;BME280;71914;47.382;8.168;2024-01-15T08:19:33;95831.66;;;-0.33;71.56
82305;BME280;71914;47.382;8.168;2024-01-15T08:22:01;95825.03;;;-0.37;71.72
82305;BME280;71914;47.382;8.168;2024-01-15T08:24:26;95834.44;;;-0.36;71.85
82305;BME280;71914;47.382;8.168;2024-01-15T08:26:52;95832.31;;;-0.29;72.04
82305;BME280;71914;47.382;8.168;2024-01-15T08:29:18;95828.00;;;-0.29;73.76
82305;BME280;71914;47.382;8.168;2024-01-15T08:31:46;95829.47;;;-0.25;73.50
82305;BME280;71914;47.382;8.168;2024-01-15T08:34:11;95830.38;;;-0.26;71.41
82305;BME280;71914;47.382;8.168;2024-01-15T08:36:37;95831.59;;;-0.31;71.09
82305;BME280;71914;47.382;8.168;2024-01-15T08:39:04;95835.34;;;-0.37;71.91
82305;BME280;71914;47.382;8.168;2024-01-15T08:41:31;95837.56;;;-0.31;70.82
82305;BME280;71914;47.382;8.168;2024-01-15T08:43:57;95835.91;;;-0.32;70.64
82305;BME280;71914;47.382;8.168;2024-01-15T08:46:22;95836.66;;;-0.30;70.05
82305;BME280;71914;47.382;8.168;2024-01-15T08:48:49;95836.53;;;-0.28;70.21
82305;BME280;71914;47.382;8.168;2024-01-15T08:51:15;95840.59;;;-0.24;69.25
82305;BME280;71914;47.382;8.168;2024-01-15T08:53:40;95835.88;;;-0.18;69.61
82305;BME280;71914;47.382;8.168;2024-01-15T08:56:08;95832.75;;;-0.23;67.87
82305;BME280;71914;47.382;8.168;2024-01-15T08:58:33;95843.44;;;-0.14;68.92
82305;BME280;71914;47.382;8.168;2024-01-15T09:00:59;95834.97;;;-0.17;70.93
82305;BME280;71914;47.382;8.168;2024-01-15T09:03:25;95837.56;;;-0.17;69.62
82305;BME280;71914;47.382;8.168;2024-01-15T09:05:51;95824.94;;;-0.21;69.31
82305;BME280;71914;47.382;8.168;2024-01-15T09:08:16;95833.31;;;-0.18;69.95
82305;BME280;71914;47.382;8.168;2024-01-15T09:10:42;95821.75;;;-0.25;69.95
82305;BME280;71914;47.382;8.168;2024-01-15T09:13:09;95818.50;;;-0.14;68.13
82305;BME280;71914;47.382;8.168;2024-01-15T09:15:35;95821.09;;;-0.14;69.05
82305;BME280;71914;47.382;8.168;2024-01-15T09:18:00;95821.72;;;-0.10;67.60
82305;BME280;71914;47.382;8.168;2024-01-15T09:20:27;95824.47;;;-0.13;68.47
82305;BME280;71914;47.382;8.168;2024-01-15T09:22:53;95832.19;;;-0.13;72.03
82305;BME280;71914;47.382;8.168;2024-01-15T09:25:19;95818.69;;;-0.03;70.81
82305;BME280;71914;47.382;8.168;2024-01-15T09:27:44;95829.81;;;-0.02;69.83
82305;BME280;71914;47.382;8.168;2024-01-15T09:30:12;95833.31;;;-0.03;68.76
82305;BME280;71914;47.382;8.168;2024-01-15T09:32:38;95834.66;;;0.03;67.36
82305;BME280;71914;47.382;8.168;2024-01-15T09:35:04;95831.88;;;0.20;74.00
82305;BME280;71914;47.382;8.168;2024-01-15T09:37:30;95834.53;;;0.33;67.70
82305;BME280;71914;47.382;8.168;2024-01-15T09:39:56;95828.47;;;0.20;67.92
82305;BME280;71914;47.382;8.168;2024-01-15T09:42:23;95818.72;;;0.10;68.18
82305;BME280;71914;47.382;8.168;2024-01-15T09:44:50;95827.22;;;0.12;67.12
82305;BME280;71914;47.382;8.168;2024-01-15T09:47:18;95827.00;;;0.15;69.09
82305;BME280;71914;47.382;8.168;2024-01-15T09:49:44;95826.09;;;0.16;66.61
82305;BME280;71914;47.382;8.168;2024-01-15T09:52:11;95824.81;;;0.24;71.16
82305;BME280;71914;47.382;8.168;2024-01-15T09:54:37;95822.78;;;0.42;74.42
82305;BME280;71914;47.382;8.168;2024-01-15T09:57:04;95815.50;;;0.48;70.66
82305;BME280;71914;47.382;8.168;2024-01-15T09:59:29;95816.25;;;0.51;68.51
82305;BME280;71914;47.382;8.168;2024-01-15T10:01:57;95823.44;;;0.45;67.34
82305;BME280;71914;47.382;8.168;2024-01-15T10:04:25;95819.09;;;0.46;67.28
82305;BME280;71914;47.382;8.168;2024-01-15T10:06:51;95810.84;;;0.41;67.98
82305;BME280;71914;47.382;8.168;2024-01-15T10:09:17;95818.28;;;0.45;66.84
82305;BME280;71914;47.382;8.168;2024-01-15T10:11:44;95812.09;;;0.48;67.38
82305;BME280;71914;47.382;8.168;2024-01-15T10:14:10;95808.50;;;0.51;66.74
82305;BME280;71914;47.382;8.168;2024-01-15T10:16:37;95808.59;;;0.49;66.62
82305;BME280;71914;47.382;8.168;2024-01-15T10:19:03;95802.59;;;0.48;66.39
82305;BME280;71914;47.382;8.168;2024-01-15T10:21:31;95800.56;;;0.54;66.38
82305;BME280;71914;47.382;8.168;2024-01-15T10:23:59;95800.38;;;0.57;65.96
82305;BME280;71914;47.382;8.168;2024-01-15T10:26:25;95804.53;;;0.59;65.55
82305;BME280;71914;47.382;8.168;2024-01-15T10:28:52;95801.84;;;0.61;66.09
82305;BME280;71914;47.382;8.168;2024-01-15T10:31:20;95789.47;;;0.66;64.82
82305;BME280;71914;47.382;8.168;2024-01-15T10:33:47;95785.88;;;0.69;65.43
82305;BME280;71914;47.382;8.168;2024-01-15T10:36:12;95779.69;;;0.71;63.63
82305;BME280;71914;47.382;8.168;2024-01-15T10:38:41;95775.25;;;0.73;64.56
82305;BME280;71914;47.382;8.168;2024-01-15T10:41:07;95769.38;;;0.71;64.53
82305;BME280;71914;47.382;8.168;2024-01-15T10:43:33;95763.09;;;0.75;64.93
82305;BME280;71914;47.382;8.168;2024-01-15T10:45:59;95762.50;;;0.85;64.00
82305;BME280;71914;47.382;8.168;2024-01-15T10:48:26;95758.88;;;0.87;64.29
82305;BME280;71914;47.382;8.168;2024-01-15T10:50:54;95755.28;;;0.90;64.32
82305;BME280;71914;47.382;8.168;2024-01-15T10:53:20;95760.22;;;0.93;64.38
82305;BME280;71914;47.382;8.168;2024-01-15T10:55:48;95761.56;;;0.98;63.70
82305;BME280;71914;47.382;8.168;2024-01-15T10:58:16;95752.19;;;1.10;62.65
82305;BME280;71914;47.382;8.168;2024-01-15T11:00:43;95752.78;;;1.14;61.89
82305;BME280;71914;47.382;8.168;2024-01-15T11:03:09;95759.41;;;1.18;60.96
82305;BME280;71914;47.382;8.168;2024-01-15T11:05:37;95747.13;;;1.22;60.95
82305;BME280;71914;47.382;8.168;2024-01-15T11:08:05;95751.16;;;1.26;61.24
82305;BME280;71914;47.382;8.168;2024-01-15T11:10:40;95749.28;;;1.28;60.81
82305;BME280;71914;47.382;8.168;2024-01-15T11:13:10;95741.16;;;1.34;58.68
82305;BME280;71914;47.382;8.168;2024-01-15T11:15:57;95728.72;;;1.39;58.34
82305;BME280;71914;47.382;8.168;2024-01-15T11:18:23;95741.22;;;1.45;59.79
82305;BME280;71914;47.382;8.168;2024-01-15T11:21:22;95734.63;;;1.41;59.20
82305;BME280;71914;47.382;8.168;2024-01-15T11:23:49;95724.28;;;1.41;60.33
82305;BME280;71914;47.382;8.168;2024-01-15T11:26:30;95722.00;;;1.49;59.05
82305;BME280;71914;47.382;8.168;2024-01-15T11:28:58;95726.25;;;1.51;58.77
82305;BME280;71914;47.382;8.168;2024-01-15T11:31:28;95713.31;;;1.51;59.89
82305;BME280;71914;47.382;8.168;2024-01-15T11:33:54;95707.00;;;1.55;59.60
82305;BME280;71914;47.382;8.168;2024-01-15T11:36:21;95708.34;;;1.97;62.62
82305;BME280;71914;47.382;8.168;2024-01-15T11:38:46;95707.47;;;2.34;65.03
82305;BME280;71914;47.382;8.168;2024-01-15T11:41:13;95704.28;;;2.06;61.11
82305;BME280;71914;47.382;8.168;2024-01-15T11:43:40;95705.53;;;2.01;59.89
82305;BME280;71914;47.382;8.168;2024-01-15T11:46:11;95708.00;;;2.02;57.83
82305;BME280;71914;47.382;8.168;2024-01-15T11:48:42;95705.00;;;2.08;57.73
82305;BME280;71914;47.382;8.168;2024-01-15T11:51:11;95709.16;;;1.98;57.57
82305;BME280;71914;47.382;8.168;2024-01-15T11:53:43;95717.44;;;1.90;59.57
82305;BME280;71914;47.382;8.168;2024-01-15T11:56:14;95706.97;;;1.80;59.45
82305;BME280;71914;47.382;8.168;2024-01-15T11:58:41;95704.38;;;1.80;57.96
82305;BME280;71914;47.382;8.168;2024-01-15T12:01:09;95691.88;;;1.74;58.67
82305;BME280;71914;47.382;8.168;2024-01-15T12:03:35;95702.94;;;1.76;58.66
82305;BME280;71914;47.382;8.168;2024-01-15T12:06:01;95704.59;;;1.77;58.87
82305;BME280;71914;47.382;8.168;2024-01-15T12:08:27;95709.44;;;1.82;58.70
82305;BME280;71914;47.382;8.168;2024-01-15T12:10:53;95698.06;;;1.85;58.73
82305;BME280;71914;47.382;8.168;2024-01-15T12:13:19;95705.56;;;1.88;57.77
82305;BME280;71914;47.382;8.168;2024-01-15T12:15:46;95696.78;;;1.90;58.24
82305;BME280;71914;47.382;8.168;2024-01-15T12:18:16;95699.06;;;1.95;57.18
82305;BME280;71914;47.382;8.168;2024-01-15T12:20:43;95711.03;;;1.96;58.14
82305;BME280;71914;47.382;8.168;2024-01-15T12:23:09;95711.53;;;2.01;57.60
82305;BME280;71914;47.382;8.168;2024-01-15T12:25:36;95710.50;;;2.04;57.12
82305;BME280;71914;47.382;8.168;2024-01-15T12:28:03;95704.50;;;2.03;57.26
82305;BME280;71914;47.382;8.168;2024-01-15T12:30:29;95715.44;;;2.07;58.87
82305;BME280;71914;47.382;8.168;2024-01-15T12:32:58;95716.13;;;2.09;57.18
82305;BME280;71914;47.382;8.168;2024-01-15T12:35:25;95716.75;;;2.12;58.06
82305;BME280;71914;47.382;8.168;2024-01-15T12:37:51;95713.97;;;2.15;57.43
82305;BME280;71914;47.382;8.168;2024-01-15T12:40:19;95703.63;;;2.15;59.34
82305;BME280;71914;47.382;8.168;2024-01-15T12:42:45;95705.38;;;2.15;55.94
82305;BME280;71914;47.382;8.168;2024-01-15T12:45:12;95717.91;;;2.08;59.60
82305;BME280;71914;47.382;8.168;2024-01-15T12:47:38;95704.59;;;2.02;57.91
82305;BME280;71914;47.382;8.168;2024-01-15T12:50:06;95706.16;;;2.04;59.46
82305;BME280;71914;47.382;8.168;2024-01-15T12:52:33;95701.72;;;2.06;57.33
82305;BME280;71914;47.382;8.168;2024-01-15T12:54:59;95710.16;;;2.08;56.11
82305;BME280;71914;47.382;8.168;2024-01-15T12:57:25;95719.38;;;1.99;58.51